Time;durP1;ratioP1;P1;durP2;ratioP2;P2;SDS_P1;SDS_P2;PMS_P1;PMS_P2;Temp;Humidity;BMP_temperature;BMP_pressure;BME280_temperature;BME280_humidity;BME280_pressure;Samples;Min_cycle;Max_cycle;Signal;HPM_P1;HPM_P2
2022/07/04 00:01:24;;;;;;;10.35;4.65;;;;;;;17.47;95.07;98237.25;1743483;82;21009;-64
2022/07/04 00:03:51;;;;;;;9.15;4.60;;;;;;;17.48;95.45;98241.53;1743570;82;20887;-63
2022/07/04 00:06:17;;;;;;;4.62;3.92;;;;;;;17.51;95.50;98238.72;1743729;82;21473;-64
2022/07/04 00:08:44;;;;;;;9.50;4.65;;;;;;;17.51;95.42;98238.20;1743461;82;21009;-64
2022/07/04 00:11:12;;;;;;;6.97;4.35;;;;;;;17.52;95.34;98235.70;1743418;82;21394;-64
2022/07/04 00:13:38;;;;;;;9.55;4.55;;;;;;;17.53;94.94;98237.86;1743413;82;20915;-62
2022/07/04 00:16:06;;;;;;;6.08;4.05;;;;;;;17.51;94.56;98240.91;1743563;82;21464;-61
2022/07/04 00:18:33;;;;;;;4.30;3.80;;;;;;;17.47;94.24;98241.31;1743424;82;21182;-65
2022/07/04 00:21:01;;;;;;;4.50;4.10;;;;;;;17.42;93.95;98233.37;1743310;82;20867;-62
2022/07/04 00:23:28;;;;;;;4.92;4.42;;;;;;;17.38;93.86;98235.13;1743430;82;20973;-64
2022/07/04 00:25:55;;;;;;;5.37;4.58;;;;;;;17.36;93.87;98230.61;1743701;82;21517;-64
2022/07/04 00:28:21;;;;;;;6.53;4.25;;;;;;;17.32;93.97;98233.75;1743536;82;20855;-60
2022/07/04 00:30:48;;;;;;;4.90;4.25;;;;;;;17.31;94.13;98225.97;1743579;82;21894;-60
2022/07/04 00:33:15;;;;;;;8.53;4.42;;;;;;;17.30;94.08;98223.02;1743533;82;21548;-59
2022/07/04 00:35:42;;;;;;;8.03;4.53;;;;;;;17.30;94.16;98218.40;1743382;82;20871;-63
2022/07/04 00:38:08;;;;;;;8.23;4.45;;;;;;;17.31;94.18;98221.32;1743474;82;20998;-62
2022/07/04 00:40:35;;;;;;;6.85;4.58;;;;;;;17.32;94.11;98213.45;1743402;82;20942;-63
2022/07/04 00:43:03;;;;;;;8.38;3.98;;;;;;;17.27;94.04;98217.70;1743421;82;21122;-61
2022/07/04 00:45:30;;;;;;;4.72;3.52;;;;;;;17.24;94.02;98217.57;1743422;82;20882;-62
2022/07/04 00:47:57;;;;;;;4.83;4.17;;;;;;;17.20;94.03;98218.77;1743511;82;20970;-63
2022/07/04 00:50:25;;;;;;;5.53;4.28;;;;;;;17.17;93.90;98215.36;1743385;82;20942;-63
2022/07/04 00:52:53;;;;;;;7.78;4.55;;;;;;;17.15;93.88;98221.66;1743371;81;20871;-61
2022/07/04 00:55:21;;;;;;;6.12;4.08;;;;;;;17.13;93.94;98211.73;1743453;82;21120;-61
2022/07/04 00:57:47;;;;;;;10.85;4.80;;;;;;;17.11;94.15;98208.56;1722609;82;21034;-62
2022/07/04 01:00:15;;;;;;;5.95;4.45;;;;;;;17.11;94.54;98207.20;1743744;82;20875;-62
2022/07/04 01:02:42;;;;;;;5.92;4.50;;;;;;;17.11;95.17;98213.97;1743361;82;20871;-60
2022/07/04 01:05:09;;;;;;;7.62;4.12;;;;;;;17.11;95.35;98212.62;1743383;82;20922;-61
2022/07/04 01:07:36;;;;;;;4.97;4.20;;;;;;;17.11;95.36;98209.91;1743493;82;21296;-64
2022/07/04 01:10:05;;;;;;;8.73;4.17;;;;;;;17.10;95.39;98214.52;1743318;82;20871;-62
2022/07/04 01:12:31;;;;;;;8.95;4.22;;;;;;;17.10;95.49;98212.38;1743741;82;20887;-61
2022/07/04 01:14:58;;;;;;;9.03;3.83;;;;;;;17.08;95.29;98211.36;1743471;82;20922;-62
2022/07/04 01:17:24;;;;;;;5.45;4.53;;;;;;;17.05;94.92;98211.23;1743671;82;21466;-63
2022/07/04 01:19:51;;;;;;;5.12;4.42;;;;;;;17.01;94.83;98206.22;1743388;82;21114;-63
2022/07/04 01:22:19;;;;;;;14.47;4.35;;;;;;;16.99;94.85;98209.26;1743422;82;20961;-64
2022/07/04 01:24:45;;;;;;;4.70;4.20;;;;;;;16.96;95.24;98210.45;1743631;82;21560;-59
2022/07/04 01:27:12;;;;;;;8.13;5.37;;;;;;;16.93;95.65;98200.31;1743466;82;20914;-62
2022/07/04 01:29:38;;;;;;;6.53;4.87;;;;;;;16.91;96.13;98204.67;1743466;82;20990;-59
2022/07/04 01:32:08;;;;;;;5.03;4.53;;;;;;;16.92;96.77;98204.92;1743373;82;21188;-62
2022/07/04 01:34:35;;;;;;;6.50;4.75;;;;;;;16.98;97.41;98200.13;1743132;80;21021;-64
2022/07/04 01:37:01;;;;;;;4.65;4.25;;;;;;;16.99;97.43;98207.11;1743347;82;20891;-64
2022/07/04 01:39:28;;;;;;;6.37;5.20;;;;;;;17.00;97.57;98199.23;1743454;82;20887;-62
2022/07/04 01:41:55;;;;;;;5.87;5.28;;;;;;;17.03;97.89;98199.91;1743368;82;21033;-63
2022/07/04 01:44:21;;;;;;;5.70;4.90;;;;;;;17.05;98.12;98206.59;1743533;82;21120;-63
2022/07/04 01:46:48;;;;;;;9.73;4.60;;;;;;;17.06;98.33;98205.48;1743395;82;20919;-63
2022/07/04 01:49:14;;;;;;;6.28;4.55;;;;;;;17.08;98.26;98210.56;1743357;82;20883;-60
2022/07/04 01:51:47;;;;;;;7.97;4.72;;;;;;;17.05;98.04;98213.35;1743385;80;21029;-61
2022/07/04 01:54:13;;;;;;;5.20;4.45;;;;;;;17.05;97.94;98208.53;1743494;82;20851;-59
2022/07/04 01:56:40;;;;;;;5.87;4.70;;;;;;;17.05;97.92;98207.94;1743331;82;21099;-60
2022/07/04 01:59:08;;;;;;;7.60;4.12;;;;;;;17.06;97.93;98204.69;1743289;82;20962;-62
2022/07/04 02:01:35;;;;;;;5.08;4.60;;;;;;;17.06;97.83;98206.03;1743645;82;21590;-61
2022/07/04 02:04:02;;;;;;;4.90;4.47;;;;;;;17.06;98.01;98211.45;1743435;82;20863;-59
2022/07/04 02:06:29;;;;;;;7.65;4.70;;;;;;;17.07;98.40;98214.40;1743521;82;21508;-63
2022/07/04 02:14:29;;;;;;;7.15;5.00;;;;;;;17.00;97.25;98213.53;1743340;82;20966;-63
2022/07/04 02:16:56;;;;;;;8.35;5.53;;;;;;;16.93;96.77;98213.25;1743635;82;20926;-64
2022/07/04 02:19:22;;;;;;;6.00;5.33;;;;;;;16.92;96.57;98219.00;1743372;82;20852;-63
2022/07/04 02:21:49;;;;;;;6.97;5.50;;;;;;;16.89;96.32;98219.09;1743372;82;21234;-63
2022/07/04 02:24:16;;;;;;;9.25;4.42;;;;;;;16.85;96.28;98214.66;1743338;82;21477;-63
2022/07/04 02:26:42;;;;;;;7.55;5.17;;;;;;;16.82;96.39;98218.00;1743322;82;20879;-64
2022/07/04 02:29:09;;;;;;;9.55;5.75;;;;;;;16.81;96.47;98220.49;1743384;82;20961;-64
2022/07/04 02:31:36;;;;;;;7.50;5.50;;;;;;;16.82;96.49;98218.00;1743332;82;20986;-61
2022/07/04 02:34:03;;;;;;;6.75;5.95;;;;;;;16.79;96.47;98218.09;1743430;82;21104;-60
2022/07/04 02:36:31;;;;;;;7.28;5.47;;;;;;;16.78;96.48;98217.08;1743280;82;21316;-61
2022/07/04 02:38:57;;;;;;;13.13;5.40;;;;;;;16.77;96.52;98226.33;1743365;82;21017;-64
2022/07/04 02:41:24;;;;;;;12.25;5.85;;;;;;;16.76;96.41;98224.72;1743471;82;20944;-60
2022/07/04 02:43:51;;;;;;;10.10;6.25;;;;;;;16.74;96.51;98224.26;1743441;82;21351;-61
2022/07/04 02:46:17;;;;;;;5.72;5.17;;;;;;;16.75;96.59;98223.13;1743691;82;21059;-61
2022/07/04 02:48:44;;;;;;;7.87;5.03;;;;;;;16.75;96.60;98227.18;1743264;82;20847;-64
2022/07/04 02:51:10;;;;;;;5.37;4.50;;;;;;;16.76;96.61;98227.42;1743422;82;20836;-62
2022/07/04 02:53:37;;;;;;;7.40;4.85;;;;;;;16.77;96.57;98230.38;1745182;81;20942;-63
2022/07/04 02:56:04;;;;;;;6.25;5.60;;;;;;;16.80;96.66;98229.71;1745788;82;20963;-62
2022/07/04 02:58:32;;;;;;;6.58;5.30;;;;;;;16.83;96.69;98226.37;1745744;82;21126;-63
2022/07/04 03:00:59;;;;;;;6.97;5.40;;;;;;;16.85;96.82;98225.47;1745647;82;20922;-63
2022/07/04 03:03:25;;;;;;;6.17;4.67;;;;;;;16.87;97.00;98230.00;1745802;82;21547;-63
2022/07/04 03:05:53;;;;;;;6.97;4.53;;;;;;;16.89;97.12;98227.76;1745692;82;20902;-63
2022/07/04 03:08:20;;;;;;;8.55;6.10;;;;;;;16.90;97.09;98231.51;1745723;82;20855;-60
2022/07/04 03:10:49;;;;;;;9.43;5.47;;;;;;;16.94;96.93;98230.28;1746063;82;21045;-60
2022/07/04 03:13:16;;;;;;;8.53;6.85;;;;;;;16.94;96.72;98231.64;1701386;82;20938;-61
2022/07/04 03:15:42;;;;;;;9.85;6.42;;;;;;;16.89;96.43;98227.76;1745880;82;21379;-62
2022/07/04 03:18:09;;;;;;;8.43;6.58;;;;;;;16.84;96.27;98225.27;1745761;82;21529;-61
2022/07/04 03:20:35;;;;;;;9.28;6.95;;;;;;;16.81;96.33;98231.31;1746113;82;21524;-63
2022/07/04 03:23:02;;;;;;;10.28;6.33;;;;;;;16.81;96.72;98223.20;1745798;82;21103;-62
2022/07/04 03:25:30;;;;;;;8.80;6.60;;;;;;;16.86;97.18;98225.72;1745596;82;20879;-63
2022/07/04 03:27:58;;;;;;;8.50;6.00;;;;;;;16.93;97.50;98228.72;1745690;82;20958;-62
2022/07/04 03:30:25;;;;;;;8.25;5.83;;;;;;;16.99;97.78;98230.11;1745730;82;21024;-63
2022/07/04 03:32:51;;;;;;;7.87;5.20;;;;;;;17.08;97.99;98234.91;1745810;82;20915;-62
2022/07/04 03:35:18;;;;;;;8.55;5.45;;;;;;;17.16;98.35;98231.94;1745754;82;21924;-62
2022/07/04 03:37:45;;;;;;;6.17;5.17;;;;;;;17.24;98.61;98233.23;1745732;82;21085;-63
2022/07/04 03:40:11;;;;;;;6.05;5.55;;;;;;;17.32;98.80;98236.45;1745824;82;20874;-63
2022/07/04 03:42:38;;;;;;;7.45;6.00;;;;;;;17.41;99.04;98239.10;1745827;82;20938;-62
2022/07/04 03:45:07;;;;;;;6.33;5.53;;;;;;;17.51;99.25;98240.08;1745846;82;20938;-61
2022/07/04 03:47:35;;;;;;;10.28;5.62;;;;;;;17.60;99.45;98235.42;1745819;82;21076;-64
2022/07/04 03:50:05;;;;;;;13.10;6.22;;;;;;;17.70;99.60;98239.10;1745848;82;20890;-63
2022/07/04 03:52:31;;;;;;;9.35;5.97;;;;;;;17.77;99.53;98243.42;1745978;81;20903;-64
2022/07/04 03:54:58;;;;;;;14.18;6.53;;;;;;;17.83;99.32;98235.91;1745814;82;20958;-63
2022/07/04 03:57:25;;;;;;;11.38;6.60;;;;;;;17.85;99.26;98234.45;1745766;82;20969;-60
2022/07/04 03:59:51;;;;;;;11.38;5.83;;;;;;;17.90;99.24;98232.10;1745824;82;21096;-62
2022/07/04 04:02:18;;;;;;;9.43;5.62;;;;;;;17.95;99.42;98229.96;1745863;82;20981;-61
2022/07/04 04:07:30;;;;;;;12.73;6.80;;;;;;;18.11;99.63;98230.93;1746028;82;20930;-60
2022/07/04 04:09:57;;;;;;;12.98;6.97;;;;;;;18.20;99.64;98228.16;1745834;82;21026;-61
2022/07/04 04:12:23;;;;;;;13.25;7.05;;;;;;;18.25;99.70;98231.43;1745908;82;21180;-63
2022/07/04 04:14:50;;;;;;;12.47;6.72;;;;;;;18.28;99.71;98229.97;1745742;82;21419;-60
2022/07/04 04:17:16;;;;;;;14.95;6.72;;;;;;;18.33;99.78;98231.13;1745851;82;21045;-62
2022/07/04 04:19:43;;;;;;;17.95;7.00;;;;;;;18.42;99.82;98230.47;1745893;82;20898;-62
2022/07/04 04:22:09;;;;;;;9.00;6.20;;;;;;;18.50;99.88;98220.69;1745819;82;21001;-59
2022/07/04 04:24:36;;;;;;;12.47;6.95;;;;;;;18.59;100.00;98227.60;1745891;82;21246;-62
2022/07/04 04:27:03;;;;;;;10.80;7.00;;;;;;;18.67;100.00;98225.93;1745845;82;20832;-64
2022/07/04 04:29:31;;;;;;;10.75;6.62;;;;;;;18.77;100.00;98224.91;1745801;82;20910;-62
2022/07/04 04:31:58;;;;;;;7.58;6.72;;;;;;;18.88;100.00;98224.72;1745882;82;20982;-62
2022/07/04 04:34:25;;;;;;;9.60;8.60;;;;;;;18.99;99.98;98219.05;1746016;82;21567;-60
2022/07/04 04:36:51;;;;;;;14.07;8.85;;;;;;;19.09;99.88;98222.69;1745897;82;21410;-63
2022/07/04 04:39:18;;;;;;;20.95;9.90;;;;;;;19.22;99.80;98219.97;1745809;82;20966;-62
2022/07/04 04:41:44;;;;;;;13.60;7.75;;;;;;;19.32;99.56;98223.56;1745882;82;20851;-63
2022/07/04 04:44:11;;;;;;;12.60;7.78;;;;;;;19.41;99.38;98220.17;1745761;82;20938;-62
2022/07/04 04:46:37;;;;;;;13.90;6.70;;;;;;;19.48;99.28;98216.32;1745878;82;20898;-61
2022/07/04 04:49:04;;;;;;;16.67;6.78;;;;;;;19.58;99.24;98222.64;1745768;82;21168;-61
2022/07/04 04:51:31;;;;;;;19.60;6.25;;;;;;;19.68;99.08;98216.74;1745839;82;20914;-60
2022/07/04 04:53:57;;;;;;;15.15;6.53;;;;;;;19.79;99.02;98221.35;1744041;81;20959;-62
2022/07/04 04:56:24;;;;;;;14.78;5.80;;;;;;;19.90;98.79;98216.23;1743386;82;20855;-62
2022/07/04 04:58:51;;;;;;;13.28;5.70;;;;;;;20.00;98.48;98217.08;1743641;82;21437;-60
2022/07/04 05:01:18;;;;;;;14.60;6.00;;;;;;;20.12;98.28;98221.11;1743483;82;21112;-62
2022/07/04 05:03:44;;;;;;;8.98;5.50;;;;;;;20.22;98.08;98215.22;1743600;82;21422;-62
2022/07/04 05:06:14;;;;;;;7.12;4.17;;;;;;;20.33;97.80;98214.92;1743463;82;20923;-63
2022/07/04 05:08:42;;;;;;;4.47;4.08;;;;;;;20.41;97.19;98217.27;1743432;82;20891;-64
2022/07/04 05:11:09;;;;;;;10.15;4.20;;;;;;;20.52;95.82;98218.89;1743415;82;20946;-61
2022/07/04 05:13:35;;;;;;;4.03;3.55;;;;;;;20.62;95.13;98217.02;1743477;82;21238;-61
2022/07/04 05:16:02;;;;;;;4.40;4.00;;;;;;;20.70;93.76;98214.72;1743419;82;20910;-60
2022/07/04 05:18:29;;;;;;;5.25;4.10;;;;;;;20.77;92.85;98209.45;1743366;82;20961;-60
2022/07/04 05:20:56;;;;;;;4.33;3.92;;;;;;;20.85;92.08;98216.63;1743412;82;20946;-59
2022/07/04 05:23:22;;;;;;;4.50;3.75;;;;;;;20.92;90.92;98215.45;1743399;82;20895;-62
2022/07/04 05:25:49;;;;;;;4.00;3.60;;;;;;;20.98;90.06;98214.85;1743383;82;21104;-64
2022/07/04 05:28:15;;;;;;;4.05;3.50;;;;;;;21.02;88.75;98223.89;1743397;82;20977;-65
2022/07/04 05:30:42;;;;;;;4.40;3.80;;;;;;;21.06;88.06;98219.34;1743344;82;20918;-66
2022/07/04 05:33:09;;;;;;;4.80;3.77;;;;;;;21.13;86.79;98220.06;1743615;82;20977;-60
2022/07/04 05:35:36;;;;;;;4.60;4.20;;;;;;;21.18;86.83;98214.92;1743457;82;21485;-62
2022/07/04 05:38:03;;;;;;;4.45;4.05;;;;;;;21.25;86.50;98217.81;1743415;82;22173;-64
2022/07/04 05:40:30;;;;;;;4.17;3.85;;;;;;;21.32;86.36;98216.05;1743301;82;20878;-63
2022/07/04 05:42:57;;;;;;;7.33;4.80;;;;;;;21.38;86.20;98220.09;1743317;82;20966;-63
2022/07/04 05:45:24;;;;;;;4.78;3.95;;;;;;;21.47;85.98;98211.71;1743772;82;20859;-58
2022/07/04 05:47:50;;;;;;;4.40;4.00;;;;;;;21.55;85.79;98216.95;1780276;80;20875;-61
2022/07/04 05:50:20;;;;;;;4.42;4.03;;;;;;;21.62;85.58;98214.38;1753485;81;39251;-61
2022/07/04 05:52:46;;;;;;;4.20;3.80;;;;;;;21.72;85.20;98212.46;1752197;80;20922;-59
2022/07/04 05:55:13;;;;;;;4.42;4.03;;;;;;;21.80;84.92;98214.20;1742876;82;21371;-60
2022/07/04 05:57:39;;;;;;;3.77;3.40;;;;;;;21.88;84.55;98216.51;1740894;81;21043;-61
2022/07/04 06:00:08;;;;;;;4.00;3.60;;;;;;;21.96;83.80;98210.06;1737340;82;20895;-58
2022/07/04 06:02:37;;;;;;;3.98;3.42;;;;;;;22.05;83.48;98216.66;1739055;82;21105;-61
2022/07/04 06:05:04;;;;;;;4.55;3.50;;;;;;;22.14;81.42;98209.06;1740772;82;20966;-60
2022/07/04 06:07:31;;;;;;;4.87;3.80;;;;;;;22.24;80.43;98211.98;1736466;81;20987;-62
2022/07/04 06:09:58;;;;;;;3.55;3.22;;;;;;;22.33;78.77;98207.66;1781473;78;20927;-62
2022/07/04 06:12:25;;;;;;;3.90;3.22;;;;;;;22.37;76.87;98197.61;1738168;82;21306;-65
2022/07/04 06:14:51;;;;;;;5.67;3.40;;;;;;;22.38;76.33;98197.81;1740349;82;21102;-65
2022/07/04 06:17:18;;;;;;;3.90;3.50;;;;;;;22.42;76.23;98198.69;1727524;83;21094;-65
2022/07/04 06:19:44;;;;;;;4.72;3.77;;;;;;;22.47;77.32;98198.36;1727663;83;21052;-61
2022/07/04 06:22:11;;;;;;;6.62;3.25;;;;;;;22.51;78.03;98188.89;1716898;82;21621;-61
2022/07/04 06:24:38;;;;;;;3.77;3.12;;;;;;;22.55;78.42;98184.27;1743362;82;21062;-61
2022/07/04 06:27:05;;;;;;;4.12;3.00;;;;;;;22.59;77.53;98183.17;1740955;81;21235;-61
2022/07/04 06:29:32;;;;;;;4.53;3.47;;;;;;;22.62;75.98;98189.31;1781376;80;21035;-61
2022/07/04 06:31:58;;;;;;;7.37;3.42;;;;;;;22.68;74.67;98190.58;1734533;82;21478;-62
2022/07/04 06:37:10;;;;;;;3.52;3.15;;;;;;;22.75;74.17;98181.14;1732230;82;21564;-62
2022/07/04 06:39:36;;;;;;;6.95;3.47;;;;;;;22.78;73.80;98191.91;1785583;79;21490;-62
2022/07/04 06:42:05;;;;;;;3.62;2.90;;;;;;;22.78;73.76;98192.70;1730943;82;20945;-59
2022/07/04 06:44:33;;;;;;;4.35;2.90;;;;;;;22.81;73.41;98191.19;1741255;81;21527;-60
2022/07/04 06:46:59;;;;;;;3.40;2.83;;;;;;;22.85;72.09;98186.56;1736438;82;20932;-61
2022/07/04 06:49:26;;;;;;;5.50;2.85;;;;;;;22.89;72.56;98188.80;1708255;83;21095;-63
2022/07/04 06:51:52;;;;;;;4.08;3.02;;;;;;;22.98;72.12;98189.33;1710818;82;21118;-64
2022/07/04 06:54:19;;;;;;;4.55;2.87;;;;;;;23.07;71.64;98189.28;1715959;82;21500;-64
2022/07/04 06:56:45;;;;;;;3.30;2.70;;;;;;;23.13;69.17;98191.90;1745406;80;21550;-64
2022/07/04 06:59:12;;;;;;;3.60;2.52;;;;;;;23.19;68.29;98188.86;1754401;81;21052;-64
2022/07/04 07:01:38;;;;;;;3.87;2.70;;;;;;;23.25;68.15;98180.57;1740652;79;21090;-65
2022/07/04 07:04:05;;;;;;;3.10;2.60;;;;;;;23.32;67.49;98180.67;1738687;82;22013;-67
2022/07/04 07:06:32;;;;;;;7.47;3.30;;;;;;;23.38;66.69;98173.17;1737964;82;21128;-63
2022/07/04 07:08:58;;;;;;;4.45;3.22;;;;;;;23.49;66.86;98173.31;1734766;82;21000;-67
2022/07/04 07:11:27;;;;;;;3.20;2.92;;;;;;;23.58;65.72;98177.34;1726859;82;21680;-65
2022/07/04 07:13:53;;;;;;;2.90;2.67;;;;;;;23.69;65.86;98174.77;1754405;81;21092;-61
2022/07/04 07:16:22;;;;;;;6.10;3.20;;;;;;;23.79;66.36;98171.35;1751674;81;21886;-64
2022/07/04 07:18:51;;;;;;;6.50;3.08;;;;;;;23.90;66.10;98175.02;1746577;80;21560;-61
2022/07/04 07:21:18;;;;;;;9.78;3.42;;;;;;;24.01;64.96;98175.92;1704984;83;21479;-64
2022/07/04 07:23:44;;;;;;;5.03;3.62;;;;;;;24.11;62.34;98175.30;1743308;81;21141;-61
2022/07/04 07:26:11;;;;;;;4.20;3.80;;;;;;;24.16;59.44;98173.59;1748279;81;21061;-64
2022/07/04 07:28:40;;;;;;;12.23;3.87;;;;;;;24.14;58.85;98167.69;1743010;81;21795;-60
2022/07/04 07:31:06;;;;;;;4.05;3.37;;;;;;;24.12;58.53;98161.05;1764767;80;21454;-67
2022/07/04 07:33:34;;;;;;;3.72;3.42;;;;;;;24.18;59.66;98162.27;1752700;81;21040;-66
2022/07/04 07:36:01;;;;;;;3.98;3.58;;;;;;;24.27;58.00;98166.85;1754622;81;21105;-64
2022/07/04 07:38:27;;;;;;;6.00;3.33;;;;;;;24.37;58.41;98168.34;1757322;81;21108;-66
2022/07/04 07:40:54;;;;;;;3.80;3.25;;;;;;;24.51;58.90;98162.78;1750758;80;21615;-63
2022/07/04 07:43:20;;;;;;;4.62;3.37;;;;;;;24.61;57.78;98160.73;1718737;83;21013;-59
2022/07/04 07:45:47;;;;;;;6.83;3.65;;;;;;;24.67;56.62;98166.84;1754243;81;20922;-60
2022/07/04 07:48:14;;;;;;;3.87;3.27;;;;;;;24.67;55.79;98164.69;1749191;81;21501;-61
2022/07/04 07:50:40;;;;;;;4.00;3.20;;;;;;;24.64;55.54;98164.06;1753629;81;21104;-66
2022/07/04 07:53:07;;;;;;;5.30;3.35;;;;;;;24.65;55.36;98162.91;1700162;82;21208;-63
2022/07/04 07:55:33;;;;;;;3.67;3.37;;;;;;;24.68;55.06;98154.73;1721254;81;21091;-62
2022/07/04 07:58:01;;;;;;;3.60;3.10;;;;;;;24.75;56.09;98160.85;1748378;81;21069;-64
2022/07/04 08:00:28;;;;;;;3.65;3.35;;;;;;;24.81;56.97;98160.72;1746659;81;21128;-66
2022/07/04 08:05:42;;;;;;;4.90;3.60;;;;;;;25.02;55.54;98159.52;1732985;82;21188;-62
2022/07/04 08:08:10;;;;;;;4.92;3.45;;;;;;;25.11;55.94;98164.87;1785037;80;21027;-61
2022/07/04 08:10:37;;;;;;;4.92;3.47;;;;;;;25.18;54.83;98164.73;1755925;81;21101;-67
2022/07/04 08:13:05;;;;;;;5.75;3.35;;;;;;;25.22;53.74;98166.33;1756534;79;21685;-65
2022/07/04 08:15:32;;;;;;;4.53;3.10;;;;;;;25.21;52.49;98163.37;1757980;80;21046;-60
2022/07/04 08:17:59;;;;;;;3.80;3.50;;;;;;;25.16;52.72;98160.98;1755795;80;21871;-65
2022/07/04 08:20:29;;;;;;;3.50;3.20;;;;;;;25.20;54.18;98156.33;1758849;80;21517;-67
2022/07/04 08:22:56;;;;;;;3.87;3.20;;;;;;;25.29;54.41;98159.52;1748200;80;21148;-66
2022/07/04 08:25:22;;;;;;;4.55;3.50;;;;;;;25.39;55.22;98153.89;1764431;80;21070;-62
2022/07/04 08:27:49;;;;;;;4.60;3.52;;;;;;;25.48;55.63;98151.05;1725989;83;20930;-62
2022/07/04 08:30:16;;;;;;;3.90;3.50;;;;;;;25.58;54.24;98152.23;1698368;82;21105;-68
2022/07/04 08:32:42;;;;;;;4.33;3.30;;;;;;;25.61;53.29;98152.27;1750282;81;20962;-69
2022/07/04 08:35:09;;;;;;;4.70;4.00;;;;;;;25.66;54.91;98161.50;1754363;81;21074;-62
2022/07/04 08:37:35;;;;;;;4.28;3.80;;;;;;;25.64;50.47;98165.22;1757257;80;21045;-64
2022/07/04 08:40:06;;;;;;;4.72;3.47;;;;;;;25.42;53.17;98155.27;1745635;81;21512;-64
2022/07/04 08:42:38;;;;;;;4.37;3.65;;;;;;;25.42;53.17;98155.27;1766725;79;21187;-61
2022/07/04 08:45:07;;;;;;;4.05;3.55;;;;;;;25.42;52.31;98164.87;1719825;83;21146;-68
2022/07/04 08:47:35;;;;;;;4.33;3.62;;;;;;;25.49;53.67;98164.94;1707103;82;21258;-70
2022/07/04 08:50:14;;;;;;;3.50;3.20;;;;;;;25.57;51.93;98166.55;1720551;83;21082;-65
2022/07/04 08:52:42;;;;;;;4.83;3.45;;;;;;;25.65;53.69;98170.09;1757886;79;21141;-65
2022/07/04 09:00:42;;;;;;;3.98;3.00;;;;;;;25.93;50.69;98168.08;1750294;81;21026;-67
2022/07/04 09:03:10;;;;;;;4.53;3.65;;;;;;;26.03;51.90;98170.05;1719287;83;21003;-68
2022/07/04 09:05:37;;;;;;;3.50;3.20;;;;;;;26.12;52.33;98171.91;1698549;82;21118;-66
2022/07/04 09:08:08;;;;;;;4.55;3.60;;;;;;;26.12;52.33;98171.91;1730392;82;21243;-67
2022/07/04 09:10:36;;;;;;;4.17;3.20;;;;;;;26.06;52.39;98167.91;1783243;79;21002;-64
2022/07/04 09:13:08;;;;;;;3.52;3.22;;;;;;;25.94;52.60;98173.17;1782962;80;21089;-64
2022/07/04 09:15:36;;;;;;;5.08;3.35;;;;;;;25.94;52.60;98173.17;1753474;81;21017;-60
2022/07/04 09:18:03;;;;;;;4.55;3.70;;;;;;;25.79;52.49;98171.56;1749596;80;21018;-69
2022/07/04 09:20:33;;;;;;;3.45;3.15;;;;;;;25.73;51.46;98164.28;1747664;80;21125;-62
2022/07/04 09:22:59;;;;;;;5.10;3.62;;;;;;;25.73;51.46;98164.28;1711958;81;20998;-70
2022/07/04 09:25:26;;;;;;;4.37;3.33;;;;;;;25.86;51.00;98161.98;1763188;80;21078;-65
2022/07/04 09:27:55;;;;;;;5.10;3.60;;;;;;;26.03;52.70;98160.45;1719788;82;21081;-63
2022/07/04 09:30:26;;;;;;;3.45;3.05;;;;;;;26.42;52.09;98158.05;1746102;80;21470;-58
2022/07/04 09:33:00;;;;;;;9.45;3.92;;;;;;;26.42;52.09;98158.05;1751298;81;21212;-60
2022/07/04 09:35:24;;;;;;;3.70;3.30;;;;;;;26.61;52.36;98154.14;1724846;81;21148;-57
2022/07/04 09:37:52;;;;;;;3.65;3.35;;;;;;;26.70;51.57;98159.23;1703228;81;21688;-61
2022/07/04 09:40:27;;;;;;;4.08;3.30;;;;;;;26.72;49.38;98160.42;1739492;80;21091;-62
2022/07/04 09:42:57;;;;;;;3.67;3.37;;;;;;;26.67;48.44;98153.94;1752641;81;21101;-65
2022/07/04 09:45:25;;;;;;;7.10;3.40;;;;;;;26.68;46.89;98163.76;1750802;81;22236;-64
2022/07/04 09:47:56;;;;;;;6.37;3.20;;;;;;;26.65;48.40;98157.67;1750739;81;21109;-64
2022/07/04 09:50:29;;;;;;;4.53;3.35;;;;;;;26.71;48.90;98161.58;1754353;81;21055;-65
2022/07/04 09:53:02;;;;;;;5.20;3.20;;;;;;;26.82;49.14;98152.80;1755046;81;21098;-60
2022/07/04 09:55:39;;;;;;;4.22;3.60;;;;;;;26.98;50.15;98155.93;1718916;81;21068;-65
2022/07/04 09:58:15;;;;;;;5.42;3.55;;;;;;;27.08;48.41;98144.73;1777134;78;21545;-62
2022/07/04 10:00:47;;;;;;;7.72;3.62;;;;;;;27.14;48.13;98146.67;1779170;78;21504;-62
2022/07/04 10:03:32;;;;;;;5.03;3.55;;;;;;;27.19;47.08;98146.86;1738313;82;20982;-61
2022/07/04 10:06:11;;;;;;;4.00;3.58;;;;;;;27.14;47.60;98145.89;1719452;81;21110;-64
2022/07/04 10:08:40;;;;;;;6.25;3.72;;;;;;;27.12;48.10;98143.55;1742446;81;21101;-62
2022/07/04 10:11:07;;;;;;;4.35;3.50;;;;;;;27.17;45.90;98145.69;1780525;78;21190;-63
2022/07/04 10:13:36;;;;;;;4.80;3.33;;;;;;;27.14;44.92;98146.67;1728559;81;21049;-59
2022/07/04 10:16:04;;;;;;;4.72;3.42;;;;;;;27.06;43.82;98145.11;1741649;82;20990;-59
2022/07/04 10:18:31;;;;;;;4.37;3.62;;;;;;;26.97;45.04;98139.23;1730284;81;20987;-65
2022/07/04 10:20:58;;;;;;;3.92;3.52;;;;;;;26.97;46.08;98136.48;1786043;78;21395;-61
2022/07/04 10:23:31;;;;;;;4.55;3.35;;;;;;;27.04;47.39;98126.85;1781270;80;21766;-64
2022/07/04 10:25:56;;;;;;;3.92;3.20;;;;;;;27.19;47.83;98129.58;1737939;82;21140;-60
2022/07/04 10:28:24;;;;;;;3.90;3.30;;;;;;;27.34;48.12;98127.00;1736381;81;21051;-62
2022/07/04 10:30:54;;;;;;;5.40;3.35;;;;;;;27.47;48.65;98126.20;1737027;82;21062;-60
2022/07/04 10:33:26;;;;;;;8.63;3.55;;;;;;;27.58;47.11;98124.19;1737649;82;21098;-59
2022/07/04 10:36:01;;;;;;;6.00;3.67;;;;;;;27.61;45.27;98122.61;1737391;82;21198;-62
2022/07/04 10:38:52;;;;;;;4.70;3.30;;;;;;;27.55;45.34;98133.25;1736771;81;21050;-65
2022/07/04 10:41:23;;;;;;;4.62;3.22;;;;;;;27.42;44.99;98121.69;1763215;80;20962;-61
2022/07/04 10:44:14;;;;;;;4.25;3.37;;;;;;;27.44;44.94;98116.59;1780282;80;21023;-61
2022/07/04 10:46:40;;;;;;;5.28;3.70;;;;;;;27.40;44.52;98113.05;1780583;80;21109;-62
2022/07/04 10:49:22;;;;;;;3.92;3.52;;;;;;;27.38;46.64;98111.30;1781724;80;21080;-62
2022/07/04 10:51:55;;;;;;;5.58;3.62;;;;;;;27.39;45.56;98111.50;1737433;82;21339;-61
2022/07/04 10:54:32;;;;;;;5.55;3.65;;;;;;;27.46;46.24;98109.48;1737907;81;21038;-63
2022/07/04 10:57:20;;;;;;;4.08;3.60;;;;;;;27.48;43.66;98110.48;1783454;80;20983;-60
2022/07/04 10:59:59;;;;;;;5.05;3.80;;;;;;;27.38;45.27;98104.42;1779673;78;21109;-63
2022/07/04 11:02:35;;;;;;;4.45;3.58;;;;;;;27.39;44.97;98108.13;1779267;80;21122;-65
2022/07/04 11:05:11;;;;;;;4.75;3.50;;;;;;;27.40;45.46;98093.80;1737725;82;21467;-61
2022/07/04 11:07:44;;;;;;;4.20;3.22;;;;;;;27.45;45.57;98096.94;1707854;83;21066;-66
2022/07/04 11:13:01;;;;;;;6.37;3.40;;;;;;;27.69;45.95;98104.31;1736964;82;21056;-62
2022/07/04 11:15:37;;;;;;;6.05;3.92;;;;;;;27.81;46.10;98101.70;1737626;82;21293;-60
2022/07/04 11:18:08;;;;;;;4.05;3.25;;;;;;;27.97;47.68;98102.00;1737152;82;20915;-62
2022/07/04 11:20:40;;;;;;;5.67;3.45;;;;;;;28.15;46.78;98095.81;1734865;81;21078;-59
2022/07/04 11:23:14;;;;;;;3.80;3.47;;;;;;;28.30;45.91;98098.67;1736050;82;21098;-60
2022/07/04 11:25:44;;;;;;;4.87;3.50;;;;;;;28.39;45.16;98101.75;1737910;82;21031;-62
2022/07/04 11:28:24;;;;;;;4.87;3.52;;;;;;;28.48;45.10;98105.41;1732925;81;21486;-62
2022/07/04 11:30:54;;;;;;;5.22;3.70;;;;;;;28.60;44.13;98106.34;1737296;82;20962;-62
2022/07/04 11:33:24;;;;;;;4.15;3.35;;;;;;;28.71;42.48;98100.12;1738069;82;21498;-56
2022/07/04 11:36:14;;;;;;;4.47;3.60;;;;;;;28.74;41.86;98095.78;1735873;82;21070;-64
2022/07/04 11:38:58;;;;;;;4.72;3.72;;;;;;;28.84;42.22;98090.77;1717452;83;21091;-64
2022/07/04 11:47:23;;;;;;;3.45;3.15;;;;;;;29.41;42.09;98092.38;1716908;81;21044;-60
2022/07/04 11:49:53;;;;;;;3.67;3.37;;;;;;;29.25;41.65;98098.47;1687485;85;20959;-65
2022/07/04 11:52:24;;;;;;;4.22;3.47;;;;;;;29.20;42.18;98100.89;1686274;85;21129;-64
2022/07/04 11:54:51;;;;;;;4.15;3.35;;;;;;;29.33;41.19;98091.66;1688680;83;22133;-62
2022/07/04 11:57:28;;;;;;;5.42;3.52;;;;;;;29.52;40.22;98092.43;1700675;84;21460;-60
2022/07/04 12:00:08;;;;;;;3.75;3.20;;;;;;;29.73;40.46;98094.13;1700044;84;20984;-64
2022/07/04 12:02:36;;;;;;;4.28;3.85;;;;;;;29.86;38.71;98091.05;1700683;84;20988;-65
2022/07/04 12:05:06;;;;;;;4.22;3.30;;;;;;;29.94;39.19;98091.71;1700482;84;21020;-59